sensor_id;sensor_type;location;lat;lon;timestamp;P1;durP1;ratioP1;P2;durP2;ratioP2
35839;SDS011;35514;50.504;30.500;2023-04-01T00:00:58;52.67;;;19.48;;
35839;SDS011;35514;50.504;30.500;2023-04-01T00:03:28;51.22;;;19.05;;
35839;SDS011;35514;50.504;30.500;2023-04-01T00:05:56;48.55;;;19.27;;
35839;SDS011;35514;50.504;30.500;2023-04-01T00:08:24;44.58;;;18.70;;
35839;SDS011;35514;50.504;30.500;2023-04-01T00:10:55;46.03;;;18.77;;
35839;SDS011;35514;50.504;30.500;2023-04-01T00:13:23;42.63;;;18.13;;
35839;SDS011;35514;50.504;30.500;2023-04-01T00:15:52;44.85;;;17.75;;
35839;SDS011;35514;50.504;30.500;2023-04-01T00:18:20;46.65;;;19.00;;
35839;SDS011;35514;50.504;30.500;2023-04-01T00:20:49;46.35;;;17.45;;
35839;SDS011;35514;50.504;30.500;2023-04-01T00:23:18;44.90;;;19.27;;
35839;SDS011;35514;50.504;30.500;2023-04-01T00:25:48;49.30;;;18.05;;
35839;SDS011;35514;50.504;30.500;2023-04-01T00:28:16;46.95;;;18.25;;
35839;SDS011;35514;50.504;30.500;2023-04-01T00:30:44;46.42;;;18.23;;
35839;SDS011;35514;50.504;30.500;2023-04-01T00:33:12;48.30;;;18.67;;
35839;SDS011;35514;50.504;30.500;2023-04-01T00:35:40;42.13;;;18.25;;
35839;SDS011;35514;50.504;30.500;2023-04-01T00:38:09;50.10;;;19.55;;
35839;SDS011;35514;50.504;30.500;2023-04-01T00:40:40;45.03;;;19.13;;
35839;SDS011;35514;50.504;30.500;2023-04-01T00:43:10;51.17;;;19.05;;
35839;SDS011;35514;50.504;30.500;2023-04-01T00:45:38;45.65;;;17.33;;
35839;SDS011;35514;50.504;30.500;2023-04-01T00:48:08;44.30;;;18.77;;
35839;SDS011;35514;50.504;30.500;2023-04-01T00:50:38;42.95;;;18.25;;
35839;SDS011;35514;50.504;30.500;2023-04-01T00:53:07;43.20;;;17.75;;
35839;SDS011;35514;50.504;30.500;2023-04-01T00:55:37;49.90;;;20.02;;
35839;SDS011;35514;50.504;30.500;2023-04-01T00:58:08;47.33;;;20.60;;
35839;SDS011;35514;50.504;30.500;2023-04-01T01:00:38;48.72;;;19.30;;
35839;SDS011;35514;50.504;30.500;2023-04-01T01:03:06;44.55;;;19.00;;
35839;SDS011;35514;50.504;30.500;2023-04-01T01:05:37;47.05;;;19.45;;
35839;SDS011;35514;50.504;30.500;2023-04-01T01:08:15;53.10;;;18.92;;
35839;SDS011;35514;50.504;30.500;2023-04-01T01:10:45;48.67;;;18.58;;
35839;SDS011;35514;50.504;30.500;2023-04-01T01:13:17;46.63;;;17.85;;
35839;SDS011;35514;50.504;30.500;2023-04-01T01:15:47;41.20;;;18.10;;
35839;SDS011;35514;50.504;30.500;2023-04-01T01:18:18;48.92;;;20.45;;
35839;SDS011;35514;50.504;30.500;2023-04-01T01:20:57;52.78;;;18.75;;
35839;SDS011;35514;50.504;30.500;2023-04-01T01:26:23;48.38;;;21.13;;
35839;SDS011;35514;50.504;30.500;2023-04-01T01:29:01;53.63;;;19.73;;
35839;SDS011;35514;50.504;30.500;2023-04-01T01:31:34;48.60;;;19.25;;
35839;SDS011;35514;50.504;30.500;2023-04-01T01:34:06;54.15;;;19.45;;
35839;SDS011;35514;50.504;30.500;2023-04-01T01:36:38;51.92;;;19.83;;
35839;SDS011;35514;50.504;30.500;2023-04-01T01:39:09;53.10;;;20.63;;
35839;SDS011;35514;50.504;30.500;2023-04-01T01:41:37;53.08;;;18.98;;
35839;SDS011;35514;50.504;30.500;2023-04-01T01:44:07;52.90;;;20.65;;
35839;SDS011;35514;50.504;30.500;2023-04-01T01:46:35;44.17;;;18.50;;
35839;SDS011;35514;50.504;30.500;2023-04-01T01:49:03;55.97;;;20.20;;
35839;SDS011;35514;50.504;30.500;2023-04-01T01:51:32;51.05;;;19.35;;
35839;SDS011;35514;50.504;30.500;2023-04-01T01:54:02;55.08;;;21.48;;
35839;SDS011;35514;50.504;30.500;2023-04-01T01:56:29;56.40;;;20.27;;
35839;SDS011;35514;50.504;30.500;2023-04-01T01:58:58;58.90;;;21.60;;
35839;SDS011;35514;50.504;30.500;2023-04-01T02:01:28;54.05;;;20.35;;
35839;SDS011;35514;50.504;30.500;2023-04-01T02:03:57;57.35;;;22.17;;
35839;SDS011;35514;50.504;30.500;2023-04-01T02:06:25;51.47;;;20.70;;
35839;SDS011;35514;50.504;30.500;2023-04-01T02:08:54;52.28;;;19.77;;
35839;SDS011;35514;50.504;30.500;2023-04-01T02:11:24;58.00;;;20.73;;
35839;SDS011;35514;50.504;30.500;2023-04-01T02:13:54;47.42;;;19.90;;
35839;SDS011;35514;50.504;30.500;2023-04-01T02:16:23;52.00;;;19.73;;
35839;SDS011;35514;50.504;30.500;2023-04-01T02:18:53;50.92;;;21.13;;
35839;SDS011;35514;50.504;30.500;2023-04-01T02:21:22;58.92;;;21.38;;
35839;SDS011;35514;50.504;30.500;2023-04-01T02:23:51;51.90;;;18.65;;
35839;SDS011;35514;50.504;30.500;2023-04-01T02:26:19;59.50;;;22.27;;
35839;SDS011;35514;50.504;30.500;2023-04-01T02:28:49;53.72;;;20.77;;
35839;SDS011;35514;50.504;30.500;2023-04-01T02:31:19;58.65;;;23.27;;
35839;SDS011;35514;50.504;30.500;2023-04-01T02:33:47;53.88;;;20.20;;
35839;SDS011;35514;50.504;30.500;2023-04-01T02:36:15;49.30;;;20.85;;
35839;SDS011;35514;50.504;30.500;2023-04-01T02:38:44;45.88;;;19.80;;
35839;SDS011;35514;50.504;30.500;2023-04-01T02:41:12;50.95;;;19.92;;
35839;SDS011;35514;50.504;30.500;2023-04-01T02:43:39;55.72;;;21.40;;
35839;SDS011;35514;50.504;30.500;2023-04-01T02:46:08;51.72;;;21.98;;
35839;SDS011;35514;50.504;30.500;2023-04-01T02:48:36;54.70;;;19.95;;
35839;SDS011;35514;50.504;30.500;2023-04-01T02:51:03;51.33;;;20.58;;
35839;SDS011;35514;50.504;30.500;2023-04-01T02:53:31;54.70;;;21.33;;
35839;SDS011;35514;50.504;30.500;2023-04-01T02:55:58;50.95;;;19.63;;
35839;SDS011;35514;50.504;30.500;2023-04-01T02:58:26;50.70;;;20.48;;
35839;SDS011;35514;50.504;30.500;2023-04-01T03:00:54;50.95;;;20.58;;
35839;SDS011;35514;50.504;30.500;2023-04-01T03:03:22;52.78;;;21.67;;
35839;SDS011;35514;50.504;30.500;2023-04-01T03:05:50;51.85;;;20.80;;
35839;SDS011;35514;50.504;30.500;2023-04-01T03:08:18;50.42;;;21.83;;
35839;SDS011;35514;50.504;30.500;2023-04-01T03:10:45;55.33;;;21.60;;
35839;SDS011;35514;50.504;30.500;2023-04-01T03:13:13;53.75;;;20.67;;
35839;SDS011;35514;50.504;30.500;2023-04-01T03:15:40;52.55;;;20.83;;
35839;SDS011;35514;50.504;30.500;2023-04-01T03:18:08;48.90;;;20.90;;
35839;SDS011;35514;50.504;30.500;2023-04-01T03:20:37;57.40;;;21.23;;
35839;SDS011;35514;50.504;30.500;2023-04-01T03:23:05;51.40;;;19.50;;
35839;SDS011;35514;50.504;30.500;2023-04-01T03:25:32;48.67;;;20.90;;
35839;SDS011;35514;50.504;30.500;2023-04-01T03:28:00;48.83;;;20.40;;
35839;SDS011;35514;50.504;30.500;2023-04-01T03:30:28;54.75;;;19.98;;
35839;SDS011;35514;50.504;30.500;2023-04-01T03:32:57;62.17;;;23.55;;
35839;SDS011;35514;50.504;30.500;2023-04-01T03:35:26;58.03;;;20.27;;
35839;SDS011;35514;50.504;30.500;2023-04-01T03:37:55;45.88;;;19.27;;
35839;SDS011;35514;50.504;30.500;2023-04-01T03:40:22;47.55;;;19.42;;
35839;SDS011;35514;50.504;30.500;2023-04-01T03:42:50;49.25;;;20.60;;
35839;SDS011;35514;50.504;30.500;2023-04-01T03:45:18;48.70;;;18.58;;
35839;SDS011;35514;50.504;30.500;2023-04-01T03:47:46;52.33;;;18.70;;
35839;SDS011;35514;50.504;30.500;2023-04-01T03:50:13;50.78;;;17.98;;
35839;SDS011;35514;50.504;30.500;2023-04-01T03:52:41;43.80;;;18.60;;
35839;SDS011;35514;50.504;30.500;2023-04-01T03:55:10;52.20;;;20.10;;
35839;SDS011;35514;50.504;30.500;2023-04-01T03:57:37;42.92;;;18.83;;
35839;SDS011;35514;50.504;30.500;2023-04-01T04:00:06;48.00;;;19.02;;
35839;SDS011;35514;50.504;30.500;2023-04-01T04:02:34;45.33;;;19.38;;
35839;SDS011;35514;50.504;30.500;2023-04-01T04:05:03;47.83;;;19.35;;
35839;SDS011;35514;50.504;30.500;2023-04-01T04:07:30;46.10;;;19.33;;
35839;SDS011;35514;50.504;30.500;2023-04-01T04:09:58;45.83;;;19.90;;
35839;SDS011;35514;50.504;30.500;2023-04-01T04:12:27;47.53;;;19.05;;
35839;SDS011;35514;50.504;30.500;2023-04-01T04:14:56;47.47;;;19.08;;
35839;SDS011;35514;50.504;30.500;2023-04-01T04:17:23;42.00;;;18.08;;
35839;SDS011;35514;50.504;30.500;2023-04-01T04:19:51;49.88;;;18.33;;
35839;SDS011;35514;50.504;30.500;2023-04-01T04:22:19;50.05;;;19.27;;
35839;SDS011;35514;50.504;30.500;2023-04-01T04:24:46;47.13;;;18.80;;
35839;SDS011;35514;50.504;30.500;2023-04-01T04:27:14;49.70;;;19.73;;
35839;SDS011;35514;50.504;30.500;2023-04-01T04:29:43;49.28;;;20.00;;
35839;SDS011;35514;50.504;30.500;2023-04-01T04:32:10;51.58;;;19.70;;
35839;SDS011;35514;50.504;30.500;2023-04-01T04:34:38;49.58;;;20.08;;
35839;SDS011;35514;50.504;30.500;2023-04-01T04:37:05;51.28;;;19.60;;
35839;SDS011;35514;50.504;30.500;2023-04-01T04:39:33;47.35;;;18.75;;
35839;SDS011;35514;50.504;30.500;2023-04-01T04:42:01;43.88;;;18.38;;
35839;SDS011;35514;50.504;30.500;2023-04-01T04:44:28;44.45;;;19.60;;
35839;SDS011;35514;50.504;30.500;2023-04-01T04:46:57;44.63;;;17.80;;
35839;SDS011;35514;50.504;30.500;2023-04-01T04:49:25;49.33;;;19.25;;
35839;SDS011;35514;50.504;30.500;2023-04-01T04:51:52;46.22;;;18.27;;
35839;SDS011;35514;50.504;30.500;2023-04-01T04:54:20;48.50;;;19.17;;
35839;SDS011;35514;50.504;30.500;2023-04-01T04:56:47;51.42;;;18.88;;
35839;SDS011;35514;50.504;30.500;2023-04-01T04:59:15;47.03;;;18.10;;
35839;SDS011;35514;50.504;30.500;2023-04-01T05:01:42;46.50;;;17.38;;
35839;SDS011;35514;50.504;30.500;2023-04-01T05:04:11;40.25;;;16.38;;
35839;SDS011;35514;50.504;30.500;2023-04-01T05:06:39;35.05;;;15.15;;
35839;SDS011;35514;50.504;30.500;2023-04-01T05:09:07;41.33;;;15.95;;
35839;SDS011;35514;50.504;30.500;2023-04-01T05:11:34;38.45;;;15.60;;
35839;SDS011;35514;50.504;30.500;2023-04-01T05:14:02;40.67;;;15.95;;
35839;SDS011;35514;50.504;30.500;2023-04-01T05:16:32;40.88;;;16.38;;
35839;SDS011;35514;50.504;30.500;2023-04-01T05:19:00;37.58;;;16.40;;
35839;SDS011;35514;50.504;30.500;2023-04-01T05:21:31;40.58;;;15.07;;
35839;SDS011;35514;50.504;30.500;2023-04-01T05:23:59;31.70;;;15.07;;
35839;SDS011;35514;50.504;30.500;2023-04-01T05:26:26;32.22;;;14.43;;
35839;SDS011;35514;50.504;30.500;2023-04-01T05:28:54;33.42;;;13.93;;
35839;SDS011;35514;50.504;30.500;2023-04-01T05:31:22;39.28;;;14.70;;
35839;SDS011;35514;50.504;30.500;2023-04-01T05:33:50;35.38;;;15.10;;
35839;SDS011;35514;50.504;30.500;2023-04-01T05:36:18;31.98;;;13.57;;
35839;SDS011;35514;50.504;30.500;2023-04-01T05:38:47;31.48;;;13.70;;
35839;SDS011;35514;50.504;30.500;2023-04-01T05:41:15;32.65;;;12.90;;
35839;SDS011;35514;50.504;30.500;2023-04-01T05:43:42;32.28;;;14.25;;
35839;SDS011;35514;50.504;30.500;2023-04-01T05:46:10;38.60;;;14.73;;
35839;SDS011;35514;50.504;30.500;2023-04-01T05:48:38;29.10;;;14.00;;
35839;SDS011;35514;50.504;30.500;2023-04-01T05:51:05;29.27;;;13.68;;
35839;SDS011;35514;50.504;30.500;2023-04-01T05:53:33;34.70;;;14.30;;
35839;SDS011;35514;50.504;30.500;2023-04-01T05:56:03;34.38;;;14.05;;
35839;SDS011;35514;50.504;30.500;2023-04-01T05:58:36;36.70;;;14.20;;
35839;SDS011;35514;50.504;30.500;2023-04-01T06:01:04;36.28;;;13.52;;
35839;SDS011;35514;50.504;30.500;2023-04-01T06:03:37;31.45;;;12.80;;
35839;SDS011;35514;50.504;30.500;2023-04-01T06:06:08;34.05;;;13.20;;
35839;SDS011;35514;50.504;30.500;2023-04-01T06:08:39;34.20;;;13.93;;
35839;SDS011;35514;50.504;30.500;2023-04-01T06:11:12;35.17;;;13.73;;
35839;SDS011;35514;50.504;30.500;2023-04-01T06:13:47;33.22;;;13.82;;
35839;SDS011;35514;50.504;30.500;2023-04-01T06:16:20;33.63;;;12.10;;
35839;SDS011;35514;50.504;30.500;2023-04-01T06:19:11;29.42;;;11.75;;
35839;SDS011;35514;50.504;30.500;2023-04-01T06:21:55;22.52;;;10.75;;
35839;SDS011;35514;50.504;30.500;2023-04-01T06:24:27;23.35;;;11.55;;
35839;SDS011;35514;50.504;30.500;2023-04-01T06:27:00;26.23;;;10.85;;
35839;SDS011;35514;50.504;30.500;2023-04-01T06:32:45;28.30;;;12.40;;
35839;SDS011;35514;50.504;30.500;2023-04-01T06:38:13;33.35;;;12.45;;
35839;SDS011;35514;50.504;30.500;2023-04-01T06:43:15;31.50;;;12.93;;
35839;SDS011;35514;50.504;30.500;2023-04-01T06:45:46;29.75;;;13.15;;
35839;SDS011;35514;50.504;30.500;2023-04-01T06:48:22;28.35;;;12.55;;
35839;SDS011;35514;50.504;30.500;2023-04-01T06:53:48;30.50;;;11.60;;
35839;SDS011;35514;50.504;30.500;2023-04-01T06:56:20;36.88;;;11.13;;
35839;SDS011;35514;50.504;30.500;2023-04-01T06:58:52;27.15;;;11.55;;
35839;SDS011;35514;50.504;30.500;2023-04-01T07:01:22;21.70;;;10.70;;
35839;SDS011;35514;50.504;30.500;2023-04-01T07:03:52;23.13;;;10.45;;
35839;SDS011;35514;50.504;30.500;2023-04-01T07:06:24;21.17;;;10.35;;
35839;SDS011;35514;50.504;30.500;2023-04-01T07:08:53;31.02;;;10.75;;
35839;SDS011;35514;50.504;30.500;2023-04-01T07:11:22;21.80;;;9.02;;
35839;SDS011;35514;50.504;30.500;2023-04-01T07:13:54;19.90;;;9.25;;
35839;SDS011;35514;50.504;30.500;2023-04-01T07:16:24;21.75;;;10.32;;
35839;SDS011;35514;50.504;30.500;2023-04-01T07:18:56;20.13;;;9.63;;
35839;SDS011;35514;50.504;30.500;2023-04-01T07:21:26;21.85;;;10.07;;
35839;SDS011;35514;50.504;30.500;2023-04-01T07:24:05;18.77;;;9.38;;
35839;SDS011;35514;50.504;30.500;2023-04-01T07:26:36;29.02;;;10.07;;
35839;SDS011;35514;50.504;30.500;2023-04-01T07:29:08;22.42;;;9.73;;
35839;SDS011;35514;50.504;30.500;2023-04-01T07:31:41;22.15;;;10.18;;
35839;SDS011;35514;50.504;30.500;2023-04-01T07:34:12;20.17;;;9.68;;
35839;SDS011;35514;50.504;30.500;2023-04-01T07:36:43;22.27;;;9.93;;
35839;SDS011;35514;50.504;30.500;2023-04-01T07:39:17;22.83;;;9.80;;
35839;SDS011;35514;50.504;30.500;2023-04-01T07:41:51;23.67;;;10.48;;
35839;SDS011;35514;50.504;30.500;2023-04-01T07:44:25;25.50;;;10.13;;
35839;SDS011;35514;50.504;30.500;2023-04-01T07:47:11;29.52;;;12.38;;
35839;SDS011;35514;50.504;30.500;2023-04-01T07:49:47;25.17;;;9.80;;
35839;SDS011;35514;50.504;30.500;2023-04-01T07:52:19;25.63;;;11.40;;
35839;SDS011;35514;50.504;30.500;2023-04-01T07:54:51;27.65;;;9.77;;
35839;SDS011;35514;50.504;30.500;2023-04-01T07:57:21;22.88;;;8.98;;
35839;SDS011;35514;50.504;30.500;2023-04-01T08:00:17;18.52;;;10.07;;
35839;SDS011;35514;50.504;30.500;2023-04-01T08:02:51;19.48;;;9.07;;
35839;SDS011;35514;50.504;30.500;2023-04-01T08:05:32;24.20;;;9.73;;
35839;SDS011;35514;50.504;30.500;2023-04-01T08:08:04;20.30;;;9.15;;
35839;SDS011;35514;50.504;30.500;2023-04-01T08:10:36;19.98;;;9.98;;
35839;SDS011;35514;50.504;30.500;2023-04-01T08:13:31;25.15;;;10.63;;
35839;SDS011;35514;50.504;30.500;2023-04-01T08:39:49;27.15;;;10.48;;
35839;SDS011;35514;50.504;30.500;2023-04-01T08:42:51;23.70;;;10.85;;
35839;SDS011;35514;50.504;30.500;2023-04-01T08:45:53;20.00;;;10.60;;
35839;SDS011;35514;50.504;30.500;2023-04-01T08:48:28;24.02;;;9.18;;
35839;SDS011;35514;50.504;30.500;2023-04-01T08:51:14;26.42;;;12.23;;
35839;SDS011;35514;50.504;30.500;2023-04-01T08:53:57;23.88;;;11.65;;
35839;SDS011;35514;50.504;30.500;2023-04-01T08:56:46;31.88;;;12.80;;
35839;SDS011;35514;50.504;30.500;2023-04-01T08:59:29;33.88;;;13.93;;
35839;SDS011;35514;50.504;30.500;2023-04-01T09:02:14;29.50;;;13.50;;
35839;SDS011;35514;50.504;30.500;2023-04-01T09:04:58;34.15;;;13.27;;
35839;SDS011;35514;50.504;30.500;2023-04-01T09:07:42;33.15;;;13.82;;
35839;SDS011;35514;50.504;30.500;2023-04-01T09:10:25;35.03;;;14.10;;
35839;SDS011;35514;50.504;30.500;2023-04-01T09:13:32;30.85;;;12.43;;
35839;SDS011;35514;50.504;30.500;2023-04-01T09:16:19;34.65;;;12.98;;
35839;SDS011;35514;50.504;30.500;2023-04-01T09:19:00;34.28;;;14.95;;
35839;SDS011;35514;50.504;30.500;2023-04-01T09:21:51;34.95;;;13.20;;
35839;SDS011;35514;50.504;30.500;2023-04-01T09:24:42;33.95;;;14.27;;
35839;SDS011;35514;50.504;30.500;2023-04-01T09:27:15;26.35;;;11.82;;
35839;SDS011;35514;50.504;30.500;2023-04-01T09:32:58;34.13;;;13.70;;
35839;SDS011;35514;50.504;30.500;2023-04-01T09:35:37;32.20;;;13.02;;
35839;SDS011;35514;50.504;30.500;2023-04-01T09:38:11;34.28;;;14.02;;
35839;SDS011;35514;50.504;30.500;2023-04-01T09:40:46;30.42;;;12.02;;
35839;SDS011;35514;50.504;30.500;2023-04-01T09:43:21;30.17;;;11.90;;
35839;SDS011;35514;50.504;30.500;2023-04-01T09:45:55;34.47;;;13.00;;
35839;SDS011;35514;50.504;30.500;2023-04-01T09:48:33;31.08;;;12.48;;
35839;SDS011;35514;50.504;30.500;2023-04-01T09:51:10;33.67;;;12.35;;
35839;SDS011;35514;50.504;30.500;2023-04-01T09:53:45;28.05;;;12.63;;
35839;SDS011;35514;50.504;30.500;2023-04-01T09:56:23;28.77;;;12.75;;
35839;SDS011;35514;50.504;30.500;2023-04-01T09:59:02;34.20;;;11.68;;
35839;SDS011;35514;50.504;30.500;2023-04-01T10:01:39;29.88;;;12.07;;
35839;SDS011;35514;50.504;30.500;2023-04-01T10:04:25;26.23;;;11.82;;
35839;SDS011;35514;50.504;30.500;2023-04-01T10:18:19;21.13;;;10.15;;
35839;SDS011;35514;50.504;30.500;2023-04-01T10:21:06;20.35;;;9.85;;
35839;SDS011;35514;50.504;30.500;2023-04-01T10:23:48;22.02;;;9.68;;
35839;SDS011;35514;50.504;30.500;2023-04-01T10:26:33;20.45;;;9.52;;
35839;SDS011;35514;50.504;30.500;2023-04-01T10:29:33;19.90;;;9.90;;
35839;SDS011;35514;50.504;30.500;2023-04-01T10:43:40;21.10;;;8.63;;
35839;SDS011;35514;50.504;30.500;2023-04-01T10:54:53;23.48;;;13.82;;
35839;SDS011;35514;50.504;30.500;2023-04-01T11:00:25;12.20;;;7.40;;
35839;SDS011;35514;50.504;30.500;2023-04-01T11:03:06;15.10;;;8.45;;
35839;SDS011;35514;50.504;30.500;2023-04-01T11:06:04;19.38;;;8.52;;
35839;SDS011;35514;50.504;30.500;2023-04-01T11:11:43;18.35;;;9.00;;
35839;SDS011;35514;50.504;30.500;2023-04-01T11:14:22;18.67;;;8.00;;
35839;SDS011;35514;50.504;30.500;2023-04-01T11:22:39;16.15;;;7.00;;
35839;SDS011;35514;50.504;30.500;2023-04-01T11:25:17;15.10;;;7.88;;
35839;SDS011;35514;50.504;30.500;2023-04-01T11:27:51;14.73;;;7.47;;
35839;SDS011;35514;50.504;30.500;2023-04-01T11:30:29;12.93;;;7.07;;
35839;SDS011;35514;50.504;30.500;2023-04-01T11:33:00;13.63;;;6.90;;
35839;SDS011;35514;50.504;30.500;2023-04-01T11:38:22;11.68;;;6.68;;
35839;SDS011;35514;50.504;30.500;2023-04-01T11:40:54;19.35;;;7.20;;
35839;SDS011;35514;50.504;30.500;2023-04-01T11:43:26;9.68;;;5.88;;
35839;SDS011;35514;50.504;30.500;2023-04-01T11:46:00;12.68;;;7.03;;
35839;SDS011;35514;50.504;30.500;2023-04-01T11:48:40;12.07;;;6.10;;
35839;SDS011;35514;50.504;30.500;2023-04-01T11:54:03;13.55;;;6.40;;
35839;SDS011;35514;50.504;30.500;2023-04-01T11:56:37;11.43;;;6.28;;
35839;SDS011;35514;50.504;30.500;2023-04-01T11:59:27;15.20;;;6.60;;
35839;SDS011;35514;50.504;30.500;2023-04-01T12:01:59;16.85;;;6.80;;
35839;SDS011;35514;50.504;30.500;2023-04-01T12:04:36;19.08;;;7.18;;
35839;SDS011;35514;50.504;30.500;2023-04-01T12:07:09;15.80;;;6.82;;
35839;SDS011;35514;50.504;30.500;2023-04-01T12:09:46;13.45;;;7.22;;
35839;SDS011;35514;50.504;30.500;2023-04-01T12:12:32;18.02;;;7.45;;
35839;SDS011;35514;50.504;30.500;2023-04-01T12:15:25;16.85;;;7.45;;
35839;SDS011;35514;50.504;30.500;2023-04-01T12:18:24;15.00;;;7.18;;
35839;SDS011;35514;50.504;30.500;2023-04-01T12:21:14;11.63;;;6.28;;
35839;SDS011;35514;50.504;30.500;2023-04-01T12:23:57;18.98;;;7.70;;
35839;SDS011;35514;50.504;30.500;2023-04-01T12:26:49;13.43;;;7.05;;
35839;SDS011;35514;50.504;30.500;2023-04-01T12:29:54;18.63;;;8.27;;
35839;SDS011;35514;50.504;30.500;2023-04-01T12:35:54;13.65;;;7.03;;
35839;SDS011;35514;50.504;30.500;2023-04-01T12:38:25;12.57;;;6.25;;
35839;SDS011;35514;50.504;30.500;2023-04-01T12:41:03;14.13;;;6.45;;
35839;SDS011;35514;50.504;30.500;2023-04-01T12:43:43;11.18;;;6.03;;
35839;SDS011;35514;50.504;30.500;2023-04-01T12:46:13;11.80;;;6.70;;
35839;SDS011;35514;50.504;30.500;2023-04-01T12:51:30;12.43;;;6.18;;
35839;SDS011;35514;50.504;30.500;2023-04-01T12:54:27;14.57;;;6.65;;
35839;SDS011;35514;50.504;30.500;2023-04-01T12:56:59;13.50;;;5.85;;
35839;SDS011;35514;50.504;30.500;2023-04-01T12:59:35;12.40;;;5.82;;
35839;SDS011;35514;50.504;30.500;2023-04-01T13:02:13;18.58;;;6.80;;
35839;SDS011;35514;50.504;30.500;2023-04-01T13:07:57;14.63;;;6.38;;
35839;SDS011;35514;50.504;30.500;2023-04-01T13:15:58;11.40;;;4.20;;
35839;SDS011;35514;50.504;30.500;2023-04-01T13:18:32;12.13;;;4.30;;
35839;SDS011;35514;50.504;30.500;2023-04-01T13:21:04;10.75;;;5.60;;
35839;SDS011;35514;50.504;30.500;2023-04-01T13:23:35;9.27;;;4.38;;
35839;SDS011;35514;50.504;30.500;2023-04-01T13:26:07;8.93;;;4.05;;
35839;SDS011;35514;50.504;30.500;2023-04-01T13:28:40;8.23;;;3.65;;
35839;SDS011;35514;50.504;30.500;2023-04-01T13:31:17;11.95;;;3.85;;
35839;SDS011;35514;50.504;30.500;2023-04-01T13:33:50;6.72;;;3.97;;
35839;SDS011;35514;50.504;30.500;2023-04-01T13:36:24;6.65;;;3.63;;
35839;SDS011;35514;50.504;30.500;2023-04-01T13:38:59;7.05;;;3.97;;
35839;SDS011;35514;50.504;30.500;2023-04-01T13:41:32;5.57;;;4.00;;
35839;SDS011;35514;50.504;30.500;2023-04-01T13:44:02;7.70;;;3.58;;
35839;SDS011;35514;50.504;30.500;2023-04-01T13:46:39;6.97;;;2.97;;
35839;SDS011;35514;50.504;30.500;2023-04-01T13:49:17;8.07;;;3.80;;
35839;SDS011;35514;50.504;30.500;2023-04-01T13:51:52;7.63;;;3.08;;
35839;SDS011;35514;50.504;30.500;2023-04-01T13:57:29;9.50;;;3.50;;
35839;SDS011;35514;50.504;30.500;2023-04-01T14:00:10;9.25;;;3.30;;
35839;SDS011;35514;50.504;30.500;2023-04-01T14:02:51;8.75;;;3.88;;
35839;SDS011;35514;50.504;30.500;2023-04-01T14:05:28;7.90;;;3.40;;
35839;SDS011;35514;50.504;30.500;2023-04-01T14:10:38;6.38;;;3.50;;
35839;SDS011;35514;50.504;30.500;2023-04-01T14:13:07;7.65;;;3.58;;
35839;SDS011;35514;50.504;30.500;2023-04-01T14:15:54;9.60;;;3.83;;
35839;SDS011;35514;50.504;30.500;2023-04-01T14:21:16;7.80;;;3.88;;
35839;SDS011;35514;50.504;30.500;2023-04-01T14:23:55;7.13;;;3.78;;
35839;SDS011;35514;50.504;30.500;2023-04-01T14:26:50;7.30;;;4.10;;
35839;SDS011;35514;50.504;30.500;2023-04-01T14:29:26;9.43;;;4.05;;
35839;SDS011;35514;50.504;30.500;2023-04-01T14:31:59;8.00;;;4.40;;
35839;SDS011;35514;50.504;30.500;2023-04-01T14:34:34;12.73;;;4.25;;
35839;SDS011;35514;50.504;30.500;2023-04-01T14:37:13;7.75;;;4.43;;
35839;SDS011;35514;50.504;30.500;2023-04-01T14:39:47;9.80;;;4.75;;
35839;SDS011;35514;50.504;30.500;2023-04-01T14:42:38;7.77;;;4.53;;
35839;SDS011;35514;50.504;30.500;2023-04-01T14:45:20;9.18;;;4.55;;
35839;SDS011;35514;50.504;30.500;2023-04-01T14:47:53;7.82;;;4.45;;
35839;SDS011;35514;50.504;30.500;2023-04-01T14:50:23;12.50;;;4.88;;
35839;SDS011;35514;50.504;30.500;2023-04-01T14:52:59;8.30;;;4.47;;
35839;SDS011;35514;50.504;30.500;2023-04-01T14:55:44;8.40;;;4.72;;
35839;SDS011;35514;50.504;30.500;2023-04-01T14:58:14;15.48;;;4.45;;
35839;SDS011;35514;50.504;30.500;2023-04-01T15:00:47;10.85;;;4.90;;
35839;SDS011;35514;50.504;30.500;2023-04-01T15:03:16;11.93;;;4.65;;
35839;SDS011;35514;50.504;30.500;2023-04-01T15:05:46;9.65;;;4.38;;
35839;SDS011;35514;50.504;30.500;2023-04-01T15:08:19;7.13;;;3.60;;
35839;SDS011;35514;50.504;30.500;2023-04-01T15:11:03;7.88;;;4.65;;
35839;SDS011;35514;50.504;30.500;2023-04-01T15:13:38;9.88;;;4.22;;
35839;SDS011;35514;50.504;30.500;2023-04-01T15:16:13;9.50;;;3.88;;
35839;SDS011;35514;50.504;30.500;2023-04-01T15:18:44;7.45;;;4.28;;
35839;SDS011;35514;50.504;30.500;2023-04-01T15:21:17;13.40;;;5.10;;
35839;SDS011;35514;50.504;30.500;2023-04-01T15:23:50;10.02;;;4.57;;
35839;SDS011;35514;50.504;30.500;2023-04-01T15:26:26;8.25;;;4.72;;
35839;SDS011;35514;50.504;30.500;2023-04-01T15:29:00;11.50;;;4.60;;
35839;SDS011;35514;50.504;30.500;2023-04-01T15:31:31;10.57;;;4.47;;
35839;SDS011;35514;50.504;30.500;2023-04-01T15:34:12;12.95;;;4.20;;
35839;SDS011;35514;50.504;30.500;2023-04-01T15:36:51;10.73;;;4.50;;
35839;SDS011;35514;50.504;30.500;2023-04-01T15:39:24;8.02;;;4.45;;
35839;SDS011;35514;50.504;30.500;2023-04-01T15:41:58;6.35;;;4.18;;
35839;SDS011;35514;50.504;30.500;2023-04-01T15:47:26;13.68;;;5.40;;
35839;SDS011;35514;50.504;30.500;2023-04-01T15:50:12;11.57;;;5.30;;
35839;SDS011;35514;50.504;30.500;2023-04-01T15:52:48;9.07;;;4.70;;
35839;SDS011;35514;50.504;30.500;2023-04-01T15:55:21;10.88;;;5.93;;
35839;SDS011;35514;50.504;30.500;2023-04-01T15:57:56;10.02;;;5.40;;
35839;SDS011;35514;50.504;30.500;2023-04-01T16:00:31;9.48;;;5.05;;
35839;SDS011;35514;50.504;30.500;2023-04-01T16:03:17;16.88;;;6.00;;
35839;SDS011;35514;50.504;30.500;2023-04-01T16:05:55;9.63;;;4.70;;
35839;SDS011;35514;50.504;30.500;2023-04-01T16:11:16;10.77;;;4.32;;
35839;SDS011;35514;50.504;30.500;2023-04-01T16:13:49;11.60;;;4.53;;
35839;SDS011;35514;50.504;30.500;2023-04-01T16:16:25;7.45;;;4.15;;
35839;SDS011;35514;50.504;30.500;2023-04-01T16:21:26;8.45;;;5.10;;
35839;SDS011;35514;50.504;30.500;2023-04-01T16:23:57;11.20;;;4.85;;
35839;SDS011;35514;50.504;30.500;2023-04-01T16:26:28;14.65;;;5.50;;
35839;SDS011;35514;50.504;30.500;2023-04-01T16:28:57;11.52;;;4.95;;
35839;SDS011;35514;50.504;30.500;2023-04-01T16:31:32;11.20;;;5.25;;
35839;SDS011;35514;50.504;30.500;2023-04-01T16:34:08;8.32;;;4.47;;
35839;SDS011;35514;50.504;30.500;2023-04-01T16:36:40;13.18;;;5.90;;
35839;SDS011;35514;50.504;30.500;2023-04-01T16:39:13;11.95;;;4.90;;
35839;SDS011;35514;50.504;30.500;2023-04-01T16:41:49;10.55;;;6.50;;
35839;SDS011;35514;50.504;30.500;2023-04-01T16:44:17;13.82;;;5.55;;
35839;SDS011;35514;50.504;30.500;2023-04-01T16:46:47;13.93;;;5.95;;
35839;SDS011;35514;50.504;30.500;2023-04-01T16:49:17;13.82;;;7.00;;
35839;SDS011;35514;50.504;30.500;2023-04-01T16:54:26;10.30;;;6.30;;
35839;SDS011;35514;50.504;30.500;2023-04-01T16:57:01;13.70;;;6.50;;